Terminal Aerodrome Forecast
Issued by NWS

Home | Current Version | Previous Version | Text Only | Print | Product List | Glossary On
Versions: 1 2 3 4 5 6 7 8 9 10 11 12 13
316
FTUS43 KGRR 221740
TAFBTL
TAF
KBTL 221740Z 2218/2318 18012G18KT P6SM SCT030
     FM222200 19010KT P6SM VCSH OVC050 WS020/19030KT
     FM230500 23006KT 4SM SHRA BR OVC009
     FM231100 30005KT 4SM SHRA BR OVC004=

USA.gov is the U.S. government's official web portal to all federal, state and local government web resources and services.